Hauptseite
METAR-TAF:

METAR-TAF

Flughäfen :

Militärflugplatz Leeuwarden

Leeuwarden, Niederlande

Breite: 53-13N, Länge: 005-46E, Höhe: 1 m

Beobachtung

Neuester Wetterbericht von vor 40 Minuten, um 18:55 UTC
Wind 5 kt aus Süd/Südost
Temperatur 23°C
Luftfeuchtigkeit 47%
Luftdruck 1014 hPa
Sichtweite 10 km oder mehr
Aufgelockert bewölkt in der Höhe von 20000 ft
Geschlossene Wolkendecke in der Höhe von 32000 ft

METAR: EHLW 051855Z AUTO 15005KT 9999 SCT200 OVC320 23/11 Q1014 BLU

Zeit: 21:35 (19:35 UTC)

Prognose

Neuester Wetterbericht von vor 3 Stunden und 38 Minuten, um 15:57 UTC
Gültige Prognose vom 05 um 17 UTC bis 06 um 05 UTC
Wind 6 kt aus Süd
Sichtweite 10 km oder mehr
keine Wolken unter 1500 m und keine Kumulonimbus oder Gewitterwolken

TAF: EHLW 051557Z 0517/0605 18006KT CAVOK

Wetterbeobachtungen und Prognosen von mehr als 4000 Flughäfen (METAR und TAF Bericht).

Die verfügbaren Stationen werden durch gelbe und rote Markierungen auf der Karte dargestellt.

Führen Sie die Maus auf sie, um den Namen der Station zu sehen.

Darauf klicken, um die Beobachtung von Wetterbeobachtungen und Prognosen zu sehen.

Um die Karte zu ändern : klicken Sie auf den grünen Tasten mit einem schwarzen Kreuz Zum Vergrößern, auf den grünen Button mit einem Gedankenstrich zu verkleinern, oder auf die grünen Pfeile für benachbarte Karten.


METAR-TAF: